sensor_id;sensor_type;location;lat;lon;timestamp;P1;durP1;ratioP1;P2;durP2;ratioP2
1479;SDS011;732;51.698;4.886;2022-09-09T00:00:40;4.00;;;2.50;;
1479;SDS011;732;51.698;4.886;2022-09-09T00:03:17;9.03;;;3.20;;
1479;SDS011;732;51.698;4.886;2022-09-09T00:05:53;5.00;;;2.90;;
1479;SDS011;732;51.698;4.886;2022-09-09T00:08:37;2.87;;;2.30;;
1479;SDS011;732;51.698;4.886;2022-09-09T00:11:12;6.50;;;3.03;;
1479;SDS011;732;51.698;4.886;2022-09-09T00:13:50;4.97;;;2.93;;
1479;SDS011;732;51.698;4.886;2022-09-09T00:16:22;4.53;;;2.90;;
1479;SDS011;732;51.698;4.886;2022-09-09T00:18:57;6.17;;;3.10;;
1479;SDS011;732;51.698;4.886;2022-09-09T00:21:33;6.17;;;3.20;;
1479;SDS011;732;51.698;4.886;2022-09-09T00:24:08;6.47;;;3.90;;
1479;SDS011;732;51.698;4.886;2022-09-09T00:26:47;5.17;;;3.47;;
1479;SDS011;732;51.698;4.886;2022-09-09T00:29:22;4.80;;;3.60;;
1479;SDS011;732;51.698;4.886;2022-09-09T00:32:00;7.80;;;3.97;;
1479;SDS011;732;51.698;4.886;2022-09-09T00:34:39;8.40;;;3.67;;
1479;SDS011;732;51.698;4.886;2022-09-09T00:37:17;7.07;;;3.80;;
1479;SDS011;732;51.698;4.886;2022-09-09T00:39:48;6.80;;;3.70;;
1479;SDS011;732;51.698;4.886;2022-09-09T00:42:23;6.50;;;3.60;;
1479;SDS011;732;51.698;4.886;2022-09-09T00:44:58;5.93;;;3.30;;
1479;SDS011;732;51.698;4.886;2022-09-09T00:47:40;9.70;;;4.20;;
1479;SDS011;732;51.698;4.886;2022-09-09T00:50:16;9.87;;;4.40;;
1479;SDS011;732;51.698;4.886;2022-09-09T00:53:05;5.90;;;3.90;;
1479;SDS011;732;51.698;4.886;2022-09-09T00:55:51;6.17;;;3.67;;
1479;SDS011;732;51.698;4.886;2022-09-09T00:58:28;6.60;;;3.93;;
1479;SDS011;732;51.698;4.886;2022-09-09T01:01:00;6.57;;;3.67;;
1479;SDS011;732;51.698;4.886;2022-09-09T01:03:35;9.40;;;4.47;;
1479;SDS011;732;51.698;4.886;2022-09-09T01:06:13;5.73;;;4.03;;
1479;SDS011;732;51.698;4.886;2022-09-09T01:11:43;7.77;;;3.57;;
1479;SDS011;732;51.698;4.886;2022-09-09T01:14:37;7.03;;;4.60;;
1479;SDS011;732;51.698;4.886;2022-09-09T01:17:15;8.67;;;4.37;;
1479;SDS011;732;51.698;4.886;2022-09-09T01:20:03;8.43;;;3.80;;
1479;SDS011;732;51.698;4.886;2022-09-09T01:22:49;6.90;;;3.60;;
1479;SDS011;732;51.698;4.886;2022-09-09T01:28:42;5.70;;;4.10;;
1479;SDS011;732;51.698;4.886;2022-09-09T01:31:15;9.30;;;4.20;;
1479;SDS011;732;51.698;4.886;2022-09-09T01:33:48;9.10;;;4.00;;
1479;SDS011;732;51.698;4.886;2022-09-09T01:36:19;5.87;;;3.33;;
1479;SDS011;732;51.698;4.886;2022-09-09T01:38:55;6.10;;;3.60;;
1479;SDS011;732;51.698;4.886;2022-09-09T01:41:26;5.80;;;3.83;;
1479;SDS011;732;51.698;4.886;2022-09-09T01:44:02;8.40;;;4.37;;
1479;SDS011;732;51.698;4.886;2022-09-09T01:46:33;7.10;;;4.10;;
1479;SDS011;732;51.698;4.886;2022-09-09T01:49:03;7.50;;;4.77;;
1479;SDS011;732;51.698;4.886;2022-09-09T01:51:34;6.33;;;4.13;;
1479;SDS011;732;51.698;4.886;2022-09-09T01:54:07;7.10;;;3.90;;
1479;SDS011;732;51.698;4.886;2022-09-09T01:56:40;5.17;;;3.70;;
1479;SDS011;732;51.698;4.886;2022-09-09T01:59:24;8.40;;;4.07;;
1479;SDS011;732;51.698;4.886;2022-09-09T02:02:15;6.30;;;3.80;;
1479;SDS011;732;51.698;4.886;2022-09-09T02:05:04;7.97;;;4.27;;
1479;SDS011;732;51.698;4.886;2022-09-09T02:07:46;9.30;;;4.07;;
1479;SDS011;732;51.698;4.886;2022-09-09T02:10:30;6.30;;;3.60;;
1479;SDS011;732;51.698;4.886;2022-09-09T02:13:20;7.23;;;4.50;;
1479;SDS011;732;51.698;4.886;2022-09-09T02:15:51;6.40;;;3.90;;
1479;SDS011;732;51.698;4.886;2022-09-09T02:18:24;8.50;;;4.00;;
1479;SDS011;732;51.698;4.886;2022-09-09T02:20:56;8.43;;;4.40;;
1479;SDS011;732;51.698;4.886;2022-09-09T02:23:26;6.73;;;3.60;;
1479;SDS011;732;51.698;4.886;2022-09-09T02:25:57;9.63;;;3.30;;
1479;SDS011;732;51.698;4.886;2022-09-09T02:28:29;5.83;;;3.80;;
1479;SDS011;732;51.698;4.886;2022-09-09T02:31:01;6.23;;;4.13;;
1479;SDS011;732;51.698;4.886;2022-09-09T02:33:36;6.10;;;3.87;;
1479;SDS011;732;51.698;4.886;2022-09-09T02:36:14;7.13;;;4.13;;
1479;SDS011;732;51.698;4.886;2022-09-09T02:38:45;5.73;;;4.03;;
1479;SDS011;732;51.698;4.886;2022-09-09T02:41:19;6.60;;;3.43;;
1479;SDS011;732;51.698;4.886;2022-09-09T02:43:53;5.17;;;3.30;;
1479;SDS011;732;51.698;4.886;2022-09-09T02:46:29;7.40;;;4.20;;
1479;SDS011;732;51.698;4.886;2022-09-09T02:49:14;6.77;;;3.73;;
1479;SDS011;732;51.698;4.886;2022-09-09T02:51:51;10.60;;;4.20;;
1479;SDS011;732;51.698;4.886;2022-09-09T02:54:30;7.47;;;3.80;;
1479;SDS011;732;51.698;4.886;2022-09-09T02:57:06;7.07;;;3.73;;
1479;SDS011;732;51.698;4.886;2022-09-09T02:59:42;5.93;;;3.43;;
1479;SDS011;732;51.698;4.886;2022-09-09T03:02:12;6.60;;;3.57;;
1479;SDS011;732;51.698;4.886;2022-09-09T03:04:43;9.40;;;4.33;;
1479;SDS011;732;51.698;4.886;2022-09-09T03:07:17;7.50;;;3.90;;
1479;SDS011;732;51.698;4.886;2022-09-09T03:09:48;10.67;;;4.40;;
1479;SDS011;732;51.698;4.886;2022-09-09T03:12:16;4.97;;;3.70;;
1479;SDS011;732;51.698;4.886;2022-09-09T03:14:46;6.43;;;3.70;;
1479;SDS011;732;51.698;4.886;2022-09-09T03:17:14;6.43;;;3.87;;
1479;SDS011;732;51.698;4.886;2022-09-09T03:19:49;7.93;;;5.40;;
1479;SDS011;732;51.698;4.886;2022-09-09T03:22:19;8.13;;;4.37;;
1479;SDS011;732;51.698;4.886;2022-09-09T03:24:47;7.50;;;4.17;;
1479;SDS011;732;51.698;4.886;2022-09-09T03:27:17;8.80;;;4.20;;
1479;SDS011;732;51.698;4.886;2022-09-09T03:29:48;10.03;;;4.93;;
1479;SDS011;732;51.698;4.886;2022-09-09T03:32:20;5.23;;;3.97;;
1479;SDS011;732;51.698;4.886;2022-09-09T03:34:54;7.73;;;4.30;;
1479;SDS011;732;51.698;4.886;2022-09-09T03:37:23;8.87;;;4.30;;
1479;SDS011;732;51.698;4.886;2022-09-09T03:39:52;5.17;;;3.40;;
1479;SDS011;732;51.698;4.886;2022-09-09T03:42:22;9.20;;;3.80;;
1479;SDS011;732;51.698;4.886;2022-09-09T03:44:54;8.50;;;3.47;;
1479;SDS011;732;51.698;4.886;2022-09-09T03:47:24;7.40;;;3.43;;
1479;SDS011;732;51.698;4.886;2022-09-09T03:49:59;5.63;;;3.60;;
1479;SDS011;732;51.698;4.886;2022-09-09T03:52:28;6.20;;;3.50;;
1479;SDS011;732;51.698;4.886;2022-09-09T03:54:57;6.13;;;3.33;;
1479;SDS011;732;51.698;4.886;2022-09-09T03:57:26;8.67;;;4.17;;
1479;SDS011;732;51.698;4.886;2022-09-09T03:59:57;4.87;;;3.13;;
1479;SDS011;732;51.698;4.886;2022-09-09T04:02:30;8.20;;;3.60;;
1479;SDS011;732;51.698;4.886;2022-09-09T04:04:59;8.97;;;3.50;;
1479;SDS011;732;51.698;4.886;2022-09-09T04:07:27;6.77;;;3.43;;
1479;SDS011;732;51.698;4.886;2022-09-09T04:09:56;7.00;;;3.87;;
1479;SDS011;732;51.698;4.886;2022-09-09T04:12:24;5.40;;;3.30;;
1479;SDS011;732;51.698;4.886;2022-09-09T04:14:52;10.87;;;3.43;;
1479;SDS011;732;51.698;4.886;2022-09-09T04:17:22;6.63;;;3.00;;
1479;SDS011;732;51.698;4.886;2022-09-09T04:19:51;5.03;;;3.00;;
1479;SDS011;732;51.698;4.886;2022-09-09T04:22:20;7.53;;;3.23;;
1479;SDS011;732;51.698;4.886;2022-09-09T04:24:49;7.37;;;3.50;;
1479;SDS011;732;51.698;4.886;2022-09-09T04:27:18;8.27;;;3.33;;
1479;SDS011;732;51.698;4.886;2022-09-09T04:29:46;6.97;;;3.50;;
1479;SDS011;732;51.698;4.886;2022-09-09T04:32:15;5.70;;;3.30;;
1479;SDS011;732;51.698;4.886;2022-09-09T04:34:46;6.40;;;3.17;;
1479;SDS011;732;51.698;4.886;2022-09-09T04:37:15;3.80;;;2.83;;
1479;SDS011;732;51.698;4.886;2022-09-09T04:39:43;10.30;;;3.70;;
1479;SDS011;732;51.698;4.886;2022-09-09T04:42:12;8.67;;;3.43;;
1479;SDS011;732;51.698;4.886;2022-09-09T04:44:42;8.63;;;3.70;;
1479;SDS011;732;51.698;4.886;2022-09-09T04:47:10;4.20;;;2.80;;
1479;SDS011;732;51.698;4.886;2022-09-09T04:49:41;5.40;;;3.10;;
1479;SDS011;732;51.698;4.886;2022-09-09T04:52:11;7.30;;;4.10;;
1479;SDS011;732;51.698;4.886;2022-09-09T04:54:39;5.53;;;3.23;;
1479;SDS011;732;51.698;4.886;2022-09-09T04:57:07;5.43;;;3.10;;
1479;SDS011;732;51.698;4.886;2022-09-09T04:59:44;6.40;;;2.97;;
1479;SDS011;732;51.698;4.886;2022-09-09T05:02:13;6.80;;;3.50;;
1479;SDS011;732;51.698;4.886;2022-09-09T05:04:42;5.90;;;3.10;;
1479;SDS011;732;51.698;4.886;2022-09-09T05:07:13;12.10;;;4.13;;
1479;SDS011;732;51.698;4.886;2022-09-09T05:09:41;4.73;;;3.00;;
1479;SDS011;732;51.698;4.886;2022-09-09T05:12:12;7.43;;;3.37;;
1479;SDS011;732;51.698;4.886;2022-09-09T05:14:46;5.83;;;3.90;;
1479;SDS011;732;51.698;4.886;2022-09-09T05:17:15;4.37;;;2.97;;
1479;SDS011;732;51.698;4.886;2022-09-09T05:19:43;6.70;;;3.50;;
1479;SDS011;732;51.698;4.886;2022-09-09T05:22:14;7.13;;;3.43;;
1479;SDS011;732;51.698;4.886;2022-09-09T05:24:48;6.63;;;3.50;;
1479;SDS011;732;51.698;4.886;2022-09-09T05:27:18;5.40;;;2.83;;
1479;SDS011;732;51.698;4.886;2022-09-09T05:29:48;5.70;;;3.43;;
1479;SDS011;732;51.698;4.886;2022-09-09T05:32:16;4.53;;;3.00;;
1479;SDS011;732;51.698;4.886;2022-09-09T05:34:47;5.30;;;3.20;;
1479;SDS011;732;51.698;4.886;2022-09-09T05:37:17;9.47;;;3.00;;
1479;SDS011;732;51.698;4.886;2022-09-09T05:39:47;4.83;;;3.20;;
1479;SDS011;732;51.698;4.886;2022-09-09T05:42:17;7.40;;;2.97;;
1479;SDS011;732;51.698;4.886;2022-09-09T05:44:45;6.77;;;2.73;;
1479;SDS011;732;51.698;4.886;2022-09-09T05:47:14;6.53;;;3.70;;
1479;SDS011;732;51.698;4.886;2022-09-09T05:49:43;6.47;;;2.93;;
1479;SDS011;732;51.698;4.886;2022-09-09T05:52:11;7.53;;;4.00;;
1479;SDS011;732;51.698;4.886;2022-09-09T05:54:42;5.10;;;3.27;;
1479;SDS011;732;51.698;4.886;2022-09-09T05:57:10;4.70;;;3.07;;
1479;SDS011;732;51.698;4.886;2022-09-09T05:59:38;5.97;;;2.80;;
1479;SDS011;732;51.698;4.886;2022-09-09T06:02:07;4.47;;;2.40;;
1479;SDS011;732;51.698;4.886;2022-09-09T06:04:36;4.47;;;2.63;;
1479;SDS011;732;51.698;4.886;2022-09-09T06:07:06;9.57;;;3.30;;
1479;SDS011;732;51.698;4.886;2022-09-09T06:09:34;5.07;;;3.10;;
1479;SDS011;732;51.698;4.886;2022-09-09T06:12:05;4.77;;;2.93;;
1479;SDS011;732;51.698;4.886;2022-09-09T06:14:35;5.87;;;3.50;;
1479;SDS011;732;51.698;4.886;2022-09-09T06:17:08;7.50;;;3.47;;
1479;SDS011;732;51.698;4.886;2022-09-09T06:19:36;7.37;;;3.40;;
1479;SDS011;732;51.698;4.886;2022-09-09T06:22:06;9.10;;;2.97;;
1479;SDS011;732;51.698;4.886;2022-09-09T06:24:38;8.90;;;3.50;;
1479;SDS011;732;51.698;4.886;2022-09-09T06:27:08;6.23;;;3.10;;
1479;SDS011;732;51.698;4.886;2022-09-09T06:29:37;4.03;;;2.57;;
1479;SDS011;732;51.698;4.886;2022-09-09T06:32:06;8.47;;;2.70;;
1479;SDS011;732;51.698;4.886;2022-09-09T06:34:35;10.10;;;3.47;;
1479;SDS011;732;51.698;4.886;2022-09-09T06:37:03;7.57;;;3.10;;
1479;SDS011;732;51.698;4.886;2022-09-09T06:39:40;11.47;;;3.77;;
1479;SDS011;732;51.698;4.886;2022-09-09T06:42:10;6.77;;;3.57;;
1479;SDS011;732;51.698;4.886;2022-09-09T06:45:01;9.07;;;3.10;;
1479;SDS011;732;51.698;4.886;2022-09-09T06:47:46;10.47;;;3.93;;
1479;SDS011;732;51.698;4.886;2022-09-09T06:50:15;6.50;;;3.77;;
1479;SDS011;732;51.698;4.886;2022-09-09T06:52:45;9.37;;;4.47;;
1479;SDS011;732;51.698;4.886;2022-09-09T06:55:15;6.97;;;4.00;;
1479;SDS011;732;51.698;4.886;2022-09-09T06:57:45;8.63;;;4.50;;
1479;SDS011;732;51.698;4.886;2022-09-09T07:00:20;6.97;;;4.53;;
1479;SDS011;732;51.698;4.886;2022-09-09T07:02:50;6.87;;;4.10;;
1479;SDS011;732;51.698;4.886;2022-09-09T07:05:19;7.90;;;3.87;;
1479;SDS011;732;51.698;4.886;2022-09-09T07:07:48;8.33;;;4.93;;
1479;SDS011;732;51.698;4.886;2022-09-09T07:10:18;9.00;;;5.07;;
1479;SDS011;732;51.698;4.886;2022-09-09T07:12:51;9.40;;;5.17;;
1479;SDS011;732;51.698;4.886;2022-09-09T07:15:22;11.73;;;5.70;;
1479;SDS011;732;51.698;4.886;2022-09-09T07:17:52;13.63;;;6.13;;
1479;SDS011;732;51.698;4.886;2022-09-09T07:20:20;8.60;;;5.43;;
1479;SDS011;732;51.698;4.886;2022-09-09T07:22:50;12.20;;;6.17;;
1479;SDS011;732;51.698;4.886;2022-09-09T07:25:21;8.20;;;4.83;;
1479;SDS011;732;51.698;4.886;2022-09-09T07:27:51;9.67;;;4.93;;
1479;SDS011;732;51.698;4.886;2022-09-09T07:30:20;8.60;;;3.97;;
1479;SDS011;732;51.698;4.886;2022-09-09T07:32:54;7.97;;;4.67;;
1479;SDS011;732;51.698;4.886;2022-09-09T07:35:23;8.77;;;4.43;;
1479;SDS011;732;51.698;4.886;2022-09-09T07:37:53;9.43;;;4.27;;
1479;SDS011;732;51.698;4.886;2022-09-09T07:40:22;9.60;;;4.63;;
1479;SDS011;732;51.698;4.886;2022-09-09T07:42:53;8.00;;;4.33;;
1479;SDS011;732;51.698;4.886;2022-09-09T07:45:21;9.27;;;4.27;;
1479;SDS011;732;51.698;4.886;2022-09-09T07:47:49;9.40;;;3.80;;
1479;SDS011;732;51.698;4.886;2022-09-09T07:50:19;6.53;;;3.90;;
1479;SDS011;732;51.698;4.886;2022-09-09T07:52:48;7.27;;;4.53;;
1479;SDS011;732;51.698;4.886;2022-09-09T07:55:17;10.20;;;4.60;;
1479;SDS011;732;51.698;4.886;2022-09-09T07:57:46;9.23;;;4.20;;
1479;SDS011;732;51.698;4.886;2022-09-09T08:00:16;10.10;;;4.40;;
1479;SDS011;732;51.698;4.886;2022-09-09T08:02:51;8.13;;;4.70;;
1479;SDS011;732;51.698;4.886;2022-09-09T08:05:21;9.83;;;5.17;;
1479;SDS011;732;51.698;4.886;2022-09-09T08:07:49;10.97;;;4.77;;
1479;SDS011;732;51.698;4.886;2022-09-09T08:10:18;6.90;;;4.40;;
1479;SDS011;732;51.698;4.886;2022-09-09T08:12:48;7.53;;;4.87;;
1479;SDS011;732;51.698;4.886;2022-09-09T08:15:37;11.57;;;5.20;;
1479;SDS011;732;51.698;4.886;2022-09-09T08:18:07;8.37;;;5.10;;
1479;SDS011;732;51.698;4.886;2022-09-09T08:20:36;11.73;;;4.83;;
1479;SDS011;732;51.698;4.886;2022-09-09T08:23:06;12.27;;;5.00;;
1479;SDS011;732;51.698;4.886;2022-09-09T08:25:34;7.07;;;4.50;;
1479;SDS011;732;51.698;4.886;2022-09-09T08:28:03;14.67;;;7.57;;
1479;SDS011;732;51.698;4.886;2022-09-09T08:30:31;9.07;;;4.80;;
1479;SDS011;732;51.698;4.886;2022-09-09T08:33:01;7.10;;;5.27;;
1479;SDS011;732;51.698;4.886;2022-09-09T08:35:30;7.40;;;4.80;;
1479;SDS011;732;51.698;4.886;2022-09-09T08:38:00;9.60;;;4.60;;
1479;SDS011;732;51.698;4.886;2022-09-09T08:40:34;16.63;;;6.57;;
1479;SDS011;732;51.698;4.886;2022-09-09T08:43:10;8.80;;;4.50;;
1479;SDS011;732;51.698;4.886;2022-09-09T08:45:42;8.67;;;4.57;;
1479;SDS011;732;51.698;4.886;2022-09-09T08:48:26;7.57;;;4.60;;
1479;SDS011;732;51.698;4.886;2022-09-09T08:51:10;7.13;;;4.13;;
1479;SDS011;732;51.698;4.886;2022-09-09T08:53:42;6.33;;;4.13;;
1479;SDS011;732;51.698;4.886;2022-09-09T08:56:25;6.00;;;4.00;;
1479;SDS011;732;51.698;4.886;2022-09-09T08:59:00;10.40;;;4.13;;
1479;SDS011;732;51.698;4.886;2022-09-09T09:01:41;11.63;;;4.57;;
1479;SDS011;732;51.698;4.886;2022-09-09T09:04:32;8.97;;;4.23;;
1479;SDS011;732;51.698;4.886;2022-09-09T09:07:18;11.30;;;5.07;;
1479;SDS011;732;51.698;4.886;2022-09-09T09:10:04;12.23;;;4.53;;
1479;SDS011;732;51.698;4.886;2022-09-09T09:13:03;9.60;;;4.20;;
1479;SDS011;732;51.698;4.886;2022-09-09T09:15:42;6.97;;;3.13;;
1479;SDS011;732;51.698;4.886;2022-09-09T09:18:14;5.97;;;3.50;;
1479;SDS011;732;51.698;4.886;2022-09-09T09:20:49;10.73;;;3.60;;
1479;SDS011;732;51.698;4.886;2022-09-09T09:23:24;10.03;;;4.00;;
1479;SDS011;732;51.698;4.886;2022-09-09T09:26:05;7.70;;;4.73;;
1479;SDS011;732;51.698;4.886;2022-09-09T09:28:38;6.87;;;4.57;;
1479;SDS011;732;51.698;4.886;2022-09-09T09:31:13;7.20;;;4.17;;
1479;SDS011;732;51.698;4.886;2022-09-09T09:33:47;11.87;;;4.30;;
1479;SDS011;732;51.698;4.886;2022-09-09T09:36:24;7.47;;;4.83;;
1479;SDS011;732;51.698;4.886;2022-09-09T09:39:04;6.73;;;3.83;;
1479;SDS011;732;51.698;4.886;2022-09-09T09:41:56;4.10;;;2.70;;
1479;SDS011;732;51.698;4.886;2022-09-09T09:44:32;8.10;;;3.60;;
1479;SDS011;732;51.698;4.886;2022-09-09T09:47:11;4.77;;;3.20;;
1479;SDS011;732;51.698;4.886;2022-09-09T09:49:52;4.23;;;3.23;;
1479;SDS011;732;51.698;4.886;2022-09-09T09:52:25;6.73;;;3.10;;
1479;SDS011;732;51.698;4.886;2022-09-09T09:54:58;4.80;;;3.87;;
1479;SDS011;732;51.698;4.886;2022-09-09T09:57:33;5.97;;;3.50;;
1479;SDS011;732;51.698;4.886;2022-09-09T10:00:12;8.43;;;4.20;;
1479;SDS011;732;51.698;4.886;2022-09-09T10:02:50;5.73;;;4.13;;
1479;SDS011;732;51.698;4.886;2022-09-09T10:05:24;7.07;;;4.03;;
1479;SDS011;732;51.698;4.886;2022-09-09T10:08:09;6.17;;;3.37;;
1479;SDS011;732;51.698;4.886;2022-09-09T10:10:42;5.50;;;3.00;;
1479;SDS011;732;51.698;4.886;2022-09-09T10:13:23;6.53;;;2.90;;
1479;SDS011;732;51.698;4.886;2022-09-09T10:16:03;5.30;;;2.87;;
1479;SDS011;732;51.698;4.886;2022-09-09T10:18:53;5.47;;;3.10;;
1479;SDS011;732;51.698;4.886;2022-09-09T10:21:31;6.30;;;2.50;;
1479;SDS011;732;51.698;4.886;2022-09-09T10:24:22;7.67;;;2.93;;
1479;SDS011;732;51.698;4.886;2022-09-09T10:27:10;4.67;;;2.87;;
1479;SDS011;732;51.698;4.886;2022-09-09T10:29:53;4.07;;;3.00;;
1479;SDS011;732;51.698;4.886;2022-09-09T10:32:48;8.20;;;3.43;;
1479;SDS011;732;51.698;4.886;2022-09-09T10:35:24;5.77;;;3.47;;
1479;SDS011;732;51.698;4.886;2022-09-09T10:41:07;4.83;;;3.00;;
1479;SDS011;732;51.698;4.886;2022-09-09T10:43:47;6.30;;;3.83;;
1479;SDS011;732;51.698;4.886;2022-09-09T10:46:35;4.63;;;2.90;;
1479;SDS011;732;51.698;4.886;2022-09-09T10:49:23;6.00;;;3.47;;
1479;SDS011;732;51.698;4.886;2022-09-09T10:52:14;6.37;;;3.50;;
1479;SDS011;732;51.698;4.886;2022-09-09T10:54:50;4.70;;;3.63;;
1479;SDS011;732;51.698;4.886;2022-09-09T10:57:29;4.10;;;3.00;;
1479;SDS011;732;51.698;4.886;2022-09-09T11:00:05;4.93;;;3.47;;
1479;SDS011;732;51.698;4.886;2022-09-09T11:02:44;5.23;;;3.10;;
1479;SDS011;732;51.698;4.886;2022-09-09T11:05:17;7.70;;;3.90;;
1479;SDS011;732;51.698;4.886;2022-09-09T11:07:49;7.47;;;3.87;;
1479;SDS011;732;51.698;4.886;2022-09-09T11:10:24;4.20;;;3.40;;
1479;SDS011;732;51.698;4.886;2022-09-09T11:13:09;5.37;;;3.20;;
1479;SDS011;732;51.698;4.886;2022-09-09T11:15:45;6.13;;;4.17;;
1479;SDS011;732;51.698;4.886;2022-09-09T11:18:19;4.97;;;3.60;;
1479;SDS011;732;51.698;4.886;2022-09-09T11:20:50;5.57;;;4.00;;
1479;SDS011;732;51.698;4.886;2022-09-09T11:23:27;4.63;;;3.77;;
1479;SDS011;732;51.698;4.886;2022-09-09T11:26:07;4.70;;;3.60;;
1479;SDS011;732;51.698;4.886;2022-09-09T11:28:51;6.30;;;4.03;;
1479;SDS011;732;51.698;4.886;2022-09-09T11:31:38;7.00;;;4.10;;
1479;SDS011;732;51.698;4.886;2022-09-09T11:34:24;6.20;;;3.50;;
1479;SDS011;732;51.698;4.886;2022-09-09T11:40:32;4.33;;;3.40;;
1479;SDS011;732;51.698;4.886;2022-09-09T11:43:01;5.13;;;4.13;;
1479;SDS011;732;51.698;4.886;2022-09-09T11:45:34;6.10;;;3.10;;
1479;SDS011;732;51.698;4.886;2022-09-09T11:48:04;4.00;;;3.10;;
1479;SDS011;732;51.698;4.886;2022-09-09T11:50:34;3.53;;;2.70;;
1479;SDS011;732;51.698;4.886;2022-09-09T11:55:59;4.30;;;2.83;;
1479;SDS011;732;51.698;4.886;2022-09-09T11:58:40;6.57;;;3.17;;
1479;SDS011;732;51.698;4.886;2022-09-09T12:01:29;5.37;;;3.57;;
1479;SDS011;732;51.698;4.886;2022-09-09T12:04:10;5.63;;;3.03;;
1479;SDS011;732;51.698;4.886;2022-09-09T12:07:00;7.33;;;3.43;;
1479;SDS011;732;51.698;4.886;2022-09-09T12:09:43;6.07;;;3.17;;
1479;SDS011;732;51.698;4.886;2022-09-09T12:12:24;7.03;;;4.00;;
1479;SDS011;732;51.698;4.886;2022-09-09T12:15:00;6.90;;;4.77;;
1479;SDS011;732;51.698;4.886;2022-09-09T12:17:48;6.87;;;3.30;;
1479;SDS011;732;51.698;4.886;2022-09-09T12:20:20;6.40;;;4.23;;
1479;SDS011;732;51.698;4.886;2022-09-09T12:22:57;9.00;;;4.00;;
1479;SDS011;732;51.698;4.886;2022-09-09T12:25:48;5.50;;;3.70;;
1479;SDS011;732;51.698;4.886;2022-09-09T12:28:41;5.73;;;3.57;;
1479;SDS011;732;51.698;4.886;2022-09-09T12:31:22;5.43;;;3.53;;
1479;SDS011;732;51.698;4.886;2022-09-09T12:34:04;7.00;;;4.10;;
1479;SDS011;732;51.698;4.886;2022-09-09T12:36:44;3.97;;;3.13;;
1479;SDS011;732;51.698;4.886;2022-09-09T12:39:20;2.40;;;2.20;;
1479;SDS011;732;51.698;4.886;2022-09-09T12:41:57;9.47;;;3.20;;
1479;SDS011;732;51.698;4.886;2022-09-09T12:44:26;3.60;;;2.50;;
1479;SDS011;732;51.698;4.886;2022-09-09T12:46:55;3.00;;;2.10;;
1479;SDS011;732;51.698;4.886;2022-09-09T12:49:31;3.30;;;2.63;;
1479;SDS011;732;51.698;4.886;2022-09-09T12:52:03;4.80;;;2.43;;
1479;SDS011;732;51.698;4.886;2022-09-09T12:54:36;4.23;;;2.40;;
1479;SDS011;732;51.698;4.886;2022-09-09T12:57:05;4.50;;;2.23;;
1479;SDS011;732;51.698;4.886;2022-09-09T12:59:38;6.47;;;2.47;;
1479;SDS011;732;51.698;4.886;2022-09-09T13:02:18;3.57;;;2.00;;
1479;SDS011;732;51.698;4.886;2022-09-09T13:04:51;4.50;;;2.27;;
1479;SDS011;732;51.698;4.886;2022-09-09T13:07:20;3.10;;;2.13;;
1479;SDS011;732;51.698;4.886;2022-09-09T13:09:51;3.87;;;2.57;;
1479;SDS011;732;51.698;4.886;2022-09-09T13:12:20;5.47;;;2.63;;
1479;SDS011;732;51.698;4.886;2022-09-09T13:14:50;4.23;;;2.90;;
1479;SDS011;732;51.698;4.886;2022-09-09T13:17:23;6.90;;;2.17;;
1479;SDS011;732;51.698;4.886;2022-09-09T13:19:56;2.53;;;2.30;;
1479;SDS011;732;51.698;4.886;2022-09-09T13:22:27;4.47;;;2.23;;
1479;SDS011;732;51.698;4.886;2022-09-09T13:25:00;3.97;;;2.20;;
1479;SDS011;732;51.698;4.886;2022-09-09T13:27:32;2.20;;;2.00;;
1479;SDS011;732;51.698;4.886;2022-09-09T13:30:19;2.93;;;2.30;;
1479;SDS011;732;51.698;4.886;2022-09-09T13:33:00;3.73;;;2.57;;
1479;SDS011;732;51.698;4.886;2022-09-09T13:35:34;4.37;;;2.30;;
1479;SDS011;732;51.698;4.886;2022-09-09T13:38:13;2.73;;;2.00;;
1479;SDS011;732;51.698;4.886;2022-09-09T13:40:51;6.13;;;2.20;;
1479;SDS011;732;51.698;4.886;2022-09-09T13:43:24;2.70;;;2.43;;
1479;SDS011;732;51.698;4.886;2022-09-09T13:45:55;3.80;;;2.17;;
1479;SDS011;732;51.698;4.886;2022-09-09T13:48:25;3.43;;;2.17;;
1479;SDS011;732;51.698;4.886;2022-09-09T13:50:56;2.50;;;1.67;;
1479;SDS011;732;51.698;4.886;2022-09-09T13:53:31;2.20;;;1.87;;
1479;SDS011;732;51.698;4.886;2022-09-09T13:56:00;2.83;;;2.03;;
1479;SDS011;732;51.698;4.886;2022-09-09T13:58:28;2.97;;;2.13;;
1479;SDS011;732;51.698;4.886;2022-09-09T14:00:57;4.30;;;2.03;;
1479;SDS011;732;51.698;4.886;2022-09-09T14:03:26;4.13;;;2.10;;
1479;SDS011;732;51.698;4.886;2022-09-09T14:05:54;1.90;;;1.70;;
1479;SDS011;732;51.698;4.886;2022-09-09T14:08:25;2.37;;;2.17;;
1479;SDS011;732;51.698;4.886;2022-09-09T14:11:03;2.37;;;1.70;;
1479;SDS011;732;51.698;4.886;2022-09-09T14:13:32;2.27;;;2.07;;
1479;SDS011;732;51.698;4.886;2022-09-09T14:16:00;2.97;;;2.10;;
1479;SDS011;732;51.698;4.886;2022-09-09T14:18:29;8.10;;;2.90;;
1479;SDS011;732;51.698;4.886;2022-09-09T14:20:59;3.93;;;1.80;;
1479;SDS011;732;51.698;4.886;2022-09-09T14:23:29;4.83;;;1.80;;
1479;SDS011;732;51.698;4.886;2022-09-09T14:25:58;2.23;;;1.37;;
1479;SDS011;732;51.698;4.886;2022-09-09T14:28:27;3.80;;;2.17;;
1479;SDS011;732;51.698;4.886;2022-09-09T14:31:15;4.57;;;1.80;;
1479;SDS011;732;51.698;4.886;2022-09-09T14:33:44;2.17;;;1.27;;
1479;SDS011;732;51.698;4.886;2022-09-09T14:36:14;5.47;;;2.10;;
1479;SDS011;732;51.698;4.886;2022-09-09T14:38:43;1.60;;;1.20;;
1479;SDS011;732;51.698;4.886;2022-09-09T14:41:11;2.70;;;1.60;;
1479;SDS011;732;51.698;4.886;2022-09-09T14:43:43;3.03;;;1.57;;
1479;SDS011;732;51.698;4.886;2022-09-09T14:46:12;1.93;;;1.77;;
1479;SDS011;732;51.698;4.886;2022-09-09T14:48:43;3.73;;;1.63;;
1479;SDS011;732;51.698;4.886;2022-09-09T14:51:17;2.40;;;2.20;;
1479;SDS011;732;51.698;4.886;2022-09-09T14:53:50;3.20;;;2.30;;
1479;SDS011;732;51.698;4.886;2022-09-09T14:56:21;1.90;;;1.67;;
1479;SDS011;732;51.698;4.886;2022-09-09T14:58:52;5.20;;;2.00;;
1479;SDS011;732;51.698;4.886;2022-09-09T15:01:22;5.73;;;1.97;;
1479;SDS011;732;51.698;4.886;2022-09-09T15:03:54;3.83;;;2.00;;
1479;SDS011;732;51.698;4.886;2022-09-09T15:06:27;4.87;;;2.00;;
1479;SDS011;732;51.698;4.886;2022-09-09T15:08:58;3.07;;;1.60;;
1479;SDS011;732;51.698;4.886;2022-09-09T15:11:28;3.10;;;2.10;;
1479;SDS011;732;51.698;4.886;2022-09-09T15:13:58;3.13;;;1.63;;
1479;SDS011;732;51.698;4.886;2022-09-09T15:16:27;2.83;;;1.80;;
1479;SDS011;732;51.698;4.886;2022-09-09T15:18:56;2.40;;;1.70;;
1479;SDS011;732;51.698;4.886;2022-09-09T15:21:29;3.37;;;2.10;;
1479;SDS011;732;51.698;4.886;2022-09-09T15:23:59;2.70;;;1.73;;
1479;SDS011;732;51.698;4.886;2022-09-09T15:26:27;2.50;;;2.00;;
1479;SDS011;732;51.698;4.886;2022-09-09T15:28:56;4.00;;;2.13;;
1479;SDS011;732;51.698;4.886;2022-09-09T15:31:27;4.40;;;2.17;;
1479;SDS011;732;51.698;4.886;2022-09-09T15:33:59;2.10;;;1.80;;
1479;SDS011;732;51.698;4.886;2022-09-09T15:36:31;3.30;;;2.00;;
1479;SDS011;732;51.698;4.886;2022-09-09T15:39:03;2.00;;;1.53;;
1479;SDS011;732;51.698;4.886;2022-09-09T15:41:33;1.67;;;1.30;;
1479;SDS011;732;51.698;4.886;2022-09-09T15:44:02;1.80;;;1.50;;
1479;SDS011;732;51.698;4.886;2022-09-09T15:46:32;1.70;;;1.50;;
1479;SDS011;732;51.698;4.886;2022-09-09T15:49:03;3.10;;;1.70;;
1479;SDS011;732;51.698;4.886;2022-09-09T15:51:34;2.37;;;1.27;;
1479;SDS011;732;51.698;4.886;2022-09-09T15:54:10;2.03;;;1.50;;
1479;SDS011;732;51.698;4.886;2022-09-09T15:56:40;4.33;;;1.87;;
1479;SDS011;732;51.698;4.886;2022-09-09T15:59:09;1.50;;;1.40;;
1479;SDS011;732;51.698;4.886;2022-09-09T16:01:38;2.30;;;1.60;;
1479;SDS011;732;51.698;4.886;2022-09-09T16:04:08;2.13;;;1.30;;
1479;SDS011;732;51.698;4.886;2022-09-09T16:06:38;2.20;;;1.30;;
1479;SDS011;732;51.698;4.886;2022-09-09T16:09:07;4.60;;;1.70;;
1479;SDS011;732;51.698;4.886;2022-09-09T16:11:37;2.20;;;1.43;;
1479;SDS011;732;51.698;4.886;2022-09-09T16:14:06;2.20;;;1.60;;
1479;SDS011;732;51.698;4.886;2022-09-09T16:16:35;2.80;;;2.17;;
1479;SDS011;732;51.698;4.886;2022-09-09T16:19:05;2.37;;;1.70;;
1479;SDS011;732;51.698;4.886;2022-09-09T16:21:36;4.10;;;1.90;;
1479;SDS011;732;51.698;4.886;2022-09-09T16:24:09;2.37;;;1.67;;
1479;SDS011;732;51.698;4.886;2022-09-09T16:26:40;3.03;;;1.90;;